sensor_id;sensor_type;location;lat;lon;timestamp;temperature;humidity
74661;SHT31;63191;39.566;2.654;2022-10-20T00:01:21;21.45;80.21
74661;SHT31;63191;39.566;2.654;2022-10-20T00:03:50;21.46;79.87
74661;SHT31;63191;39.566;2.654;2022-10-20T00:06:23;21.45;79.56
74661;SHT31;63191;39.566;2.654;2022-10-20T00:08:53;21.44;79.49
74661;SHT31;63191;39.566;2.654;2022-10-20T00:11:20;21.42;79.46
74661;SHT31;63191;39.566;2.654;2022-10-20T00:13:49;21.41;79.44
74661;SHT31;63191;39.566;2.654;2022-10-20T00:16:16;21.43;79.50
74661;SHT31;63191;39.566;2.654;2022-10-20T00:18:42;21.44;79.50
74661;SHT31;63191;39.566;2.654;2022-10-20T00:21:13;21.46;79.57
74661;SHT31;63191;39.566;2.654;2022-10-20T00:23:44;21.47;79.57
74661;SHT31;63191;39.566;2.654;2022-10-20T00:26:15;21.49;79.59
74661;SHT31;63191;39.566;2.654;2022-10-20T00:28:51;21.49;79.66
74661;SHT31;63191;39.566;2.654;2022-10-20T00:31:18;21.50;79.61
74661;SHT31;63191;39.566;2.654;2022-10-20T00:33:46;21.51;79.61
74661;SHT31;63191;39.566;2.654;2022-10-20T00:36:13;21.51;79.64
74661;SHT31;63191;39.566;2.654;2022-10-20T00:38:41;21.50;79.70
74661;SHT31;63191;39.566;2.654;2022-10-20T00:41:08;21.48;79.70
74661;SHT31;63191;39.566;2.654;2022-10-20T00:43:45;21.45;79.83
74661;SHT31;63191;39.566;2.654;2022-10-20T00:46:17;21.43;79.99
74661;SHT31;63191;39.566;2.654;2022-10-20T00:48:47;21.43;80.10
74661;SHT31;63191;39.566;2.654;2022-10-20T00:51:21;21.43;80.12
74661;SHT31;63191;39.566;2.654;2022-10-20T00:53:52;21.45;80.19
74661;SHT31;63191;39.566;2.654;2022-10-20T00:56:28;21.45;80.20
74661;SHT31;63191;39.566;2.654;2022-10-20T00:58:54;21.44;80.23
74661;SHT31;63191;39.566;2.654;2022-10-20T01:01:20;21.43;80.29
74661;SHT31;63191;39.566;2.654;2022-10-20T01:03:47;21.42;80.39
74661;SHT31;63191;39.566;2.654;2022-10-20T01:06:16;21.42;80.38
74661;SHT31;63191;39.566;2.654;2022-10-20T01:08:45;21.43;80.39
74661;SHT31;63191;39.566;2.654;2022-10-20T01:25:53;21.40;80.50
74661;SHT31;63191;39.566;2.654;2022-10-20T01:31:24;21.39;80.61
74661;SHT31;63191;39.566;2.654;2022-10-20T01:36:58;21.37;80.72
74661;SHT31;63191;39.566;2.654;2022-10-20T01:39:40;21.34;80.75
74661;SHT31;63191;39.566;2.654;2022-10-20T01:42:14;21.34;80.80
74661;SHT31;63191;39.566;2.654;2022-10-20T01:44:45;21.35;80.75
74661;SHT31;63191;39.566;2.654;2022-10-20T01:47:12;21.35;80.80
74661;SHT31;63191;39.566;2.654;2022-10-20T01:49:43;21.35;80.97
74661;SHT31;63191;39.566;2.654;2022-10-20T01:52:11;21.34;81.13
74661;SHT31;63191;39.566;2.654;2022-10-20T01:54:38;21.33;81.21
74661;SHT31;63191;39.566;2.654;2022-10-20T02:00:03;21.33;81.28
74661;SHT31;63191;39.566;2.654;2022-10-20T02:11:04;21.30;81.38
74661;SHT31;63191;39.566;2.654;2022-10-20T02:13:34;21.28;81.40
74661;SHT31;63191;39.566;2.654;2022-10-20T02:16:06;21.28;81.48
74661;SHT31;63191;39.566;2.654;2022-10-20T02:18:39;21.28;81.48
74661;SHT31;63191;39.566;2.654;2022-10-20T02:21:08;21.30;81.50
74661;SHT31;63191;39.566;2.654;2022-10-20T02:23:36;21.30;81.55
74661;SHT31;63191;39.566;2.654;2022-10-20T02:26:05;21.32;81.60
74661;SHT31;63191;39.566;2.654;2022-10-20T02:28:34;21.32;81.60
74661;SHT31;63191;39.566;2.654;2022-10-20T02:31:02;21.30;81.61
74661;SHT31;63191;39.566;2.654;2022-10-20T02:33:28;21.31;81.66
74661;SHT31;63191;39.566;2.654;2022-10-20T02:35:56;21.31;81.70
74661;SHT31;63191;39.566;2.654;2022-10-20T02:38:24;21.33;81.76
74661;SHT31;63191;39.566;2.654;2022-10-20T02:40:50;21.34;81.79
74661;SHT31;63191;39.566;2.654;2022-10-20T02:43:15;21.35;81.76
74661;SHT31;63191;39.566;2.654;2022-10-20T02:45:41;21.35;81.74
74661;SHT31;63191;39.566;2.654;2022-10-20T02:48:07;21.35;81.80
74661;SHT31;63191;39.566;2.654;2022-10-20T02:50:36;21.36;81.76
74661;SHT31;63191;39.566;2.654;2022-10-20T02:53:03;21.39;81.77
74661;SHT31;63191;39.566;2.654;2022-10-20T02:55:29;21.40;81.70
74661;SHT31;63191;39.566;2.654;2022-10-20T02:57:55;21.40;81.70
74661;SHT31;63191;39.566;2.654;2022-10-20T03:00:21;21.41;81.84
74661;SHT31;63191;39.566;2.654;2022-10-20T03:02:48;21.44;82.07
74661;SHT31;63191;39.566;2.654;2022-10-20T03:05:14;21.48;82.18
74661;SHT31;63191;39.566;2.654;2022-10-20T03:07:40;21.51;82.12
74661;SHT31;63191;39.566;2.654;2022-10-20T03:10:06;21.55;81.99
74661;SHT31;63191;39.566;2.654;2022-10-20T03:12:33;21.60;81.85
74661;SHT31;63191;39.566;2.654;2022-10-20T03:14:58;21.61;81.69
74661;SHT31;63191;39.566;2.654;2022-10-20T03:17:24;21.63;81.54
74661;SHT31;63191;39.566;2.654;2022-10-20T03:19:50;21.63;81.39
74661;SHT31;63191;39.566;2.654;2022-10-20T03:22:15;21.61;81.30
74661;SHT31;63191;39.566;2.654;2022-10-20T03:24:41;21.61;81.22
74661;SHT31;63191;39.566;2.654;2022-10-20T03:27:07;21.61;81.13
74661;SHT31;63191;39.566;2.654;2022-10-20T03:29:32;21.61;81.05
74661;SHT31;63191;39.566;2.654;2022-10-20T03:31:58;21.61;80.94
74661;SHT31;63191;39.566;2.654;2022-10-20T03:34:24;21.61;80.85
74661;SHT31;63191;39.566;2.654;2022-10-20T03:36:50;21.59;80.73
74661;SHT31;63191;39.566;2.654;2022-10-20T03:39:15;21.57;80.62
74661;SHT31;63191;39.566;2.654;2022-10-20T03:41:41;21.54;80.54
74661;SHT31;63191;39.566;2.654;2022-10-20T03:44:08;21.52;80.44
74661;SHT31;63191;39.566;2.654;2022-10-20T03:46:34;21.50;80.32
74661;SHT31;63191;39.566;2.654;2022-10-20T03:49:00;21.49;80.23
74661;SHT31;63191;39.566;2.654;2022-10-20T03:51:26;21.47;80.16
74661;SHT31;63191;39.566;2.654;2022-10-20T03:53:52;21.43;80.10
74661;SHT31;63191;39.566;2.654;2022-10-20T03:56:18;21.39;80.06
74661;SHT31;63191;39.566;2.654;2022-10-20T03:58:45;21.36;80.00
74661;SHT31;63191;39.566;2.654;2022-10-20T04:01:15;21.33;79.95
74661;SHT31;63191;39.566;2.654;2022-10-20T04:03:43;21.30;79.90
74661;SHT31;63191;39.566;2.654;2022-10-20T04:06:09;21.29;79.84
74661;SHT31;63191;39.566;2.654;2022-10-20T04:08:37;21.26;79.80
74661;SHT31;63191;39.566;2.654;2022-10-20T04:11:03;21.22;79.76
74661;SHT31;63191;39.566;2.654;2022-10-20T04:13:29;21.20;79.70
74661;SHT31;63191;39.566;2.654;2022-10-20T04:15:54;21.16;79.68
74661;SHT31;63191;39.566;2.654;2022-10-20T04:18:20;21.12;79.62
74661;SHT31;63191;39.566;2.654;2022-10-20T04:20:46;21.11;79.57
74661;SHT31;63191;39.566;2.654;2022-10-20T04:23:12;21.09;79.47
74661;SHT31;63191;39.566;2.654;2022-10-20T04:25:42;21.09;79.38
74661;SHT31;63191;39.566;2.654;2022-10-20T04:28:16;21.07;79.29
74661;SHT31;63191;39.566;2.654;2022-10-20T04:30:44;21.05;79.15
74661;SHT31;63191;39.566;2.654;2022-10-20T04:33:11;21.04;79.02
74661;SHT31;63191;39.566;2.654;2022-10-20T04:35:37;21.02;78.92
74661;SHT31;63191;39.566;2.654;2022-10-20T04:38:03;21.02;78.71
74661;SHT31;63191;39.566;2.654;2022-10-20T04:40:29;21.02;78.44
74661;SHT31;63191;39.566;2.654;2022-10-20T04:42:57;21.01;78.17
74661;SHT31;63191;39.566;2.654;2022-10-20T04:45:24;20.99;77.90
74661;SHT31;63191;39.566;2.654;2022-10-20T04:47:51;20.98;77.59
74661;SHT31;63191;39.566;2.654;2022-10-20T04:50:17;20.95;77.23
74661;SHT31;63191;39.566;2.654;2022-10-20T04:52:42;20.92;76.89
74661;SHT31;63191;39.566;2.654;2022-10-20T04:55:08;20.90;76.65
74661;SHT31;63191;39.566;2.654;2022-10-20T04:57:34;20.87;76.46
74661;SHT31;63191;39.566;2.654;2022-10-20T04:59:59;20.87;76.24
74661;SHT31;63191;39.566;2.654;2022-10-20T05:02:25;20.89;76.06
74661;SHT31;63191;39.566;2.654;2022-10-20T05:04:51;20.90;75.96
74661;SHT31;63191;39.566;2.654;2022-10-20T05:07:16;20.90;75.74
74661;SHT31;63191;39.566;2.654;2022-10-20T05:09:42;20.90;75.45
74661;SHT31;63191;39.566;2.654;2022-10-20T05:12:08;20.90;75.22
74661;SHT31;63191;39.566;2.654;2022-10-20T05:14:33;20.91;74.93
74661;SHT31;63191;39.566;2.654;2022-10-20T05:16:59;20.90;74.44
74661;SHT31;63191;39.566;2.654;2022-10-20T05:19:25;20.90;73.65
74661;SHT31;63191;39.566;2.654;2022-10-20T05:21:50;20.89;72.86
74661;SHT31;63191;39.566;2.654;2022-10-20T05:24:16;20.87;72.10
74661;SHT31;63191;39.566;2.654;2022-10-20T05:26:42;20.86;71.36
74661;SHT31;63191;39.566;2.654;2022-10-20T05:29:09;20.84;70.56
74661;SHT31;63191;39.566;2.654;2022-10-20T05:31:37;20.83;69.78
74661;SHT31;63191;39.566;2.654;2022-10-20T05:34:05;20.81;69.53
74661;SHT31;63191;39.566;2.654;2022-10-20T05:36:32;20.78;69.42
74661;SHT31;63191;39.566;2.654;2022-10-20T05:38:58;20.74;69.24
74661;SHT31;63191;39.566;2.654;2022-10-20T05:41:27;20.71;69.36
74661;SHT31;63191;39.566;2.654;2022-10-20T05:43:56;20.66;69.40
74661;SHT31;63191;39.566;2.654;2022-10-20T05:46:28;20.63;69.27
74661;SHT31;63191;39.566;2.654;2022-10-20T05:48:59;20.59;69.20
74661;SHT31;63191;39.566;2.654;2022-10-20T05:51:28;20.58;69.22
74661;SHT31;63191;39.566;2.654;2022-10-20T05:53:58;20.59;69.29
74661;SHT31;63191;39.566;2.654;2022-10-20T05:56:24;20.60;69.69
74661;SHT31;63191;39.566;2.654;2022-10-20T05:58:51;20.61;70.21
74661;SHT31;63191;39.566;2.654;2022-10-20T06:01:18;20.63;70.73
74661;SHT31;63191;39.566;2.654;2022-10-20T06:06:18;20.64;71.75
74661;SHT31;63191;39.566;2.654;2022-10-20T06:08:46;20.66;72.01
74661;SHT31;63191;39.566;2.654;2022-10-20T06:11:13;20.69;72.34
74661;SHT31;63191;39.566;2.654;2022-10-20T06:13:39;20.72;72.81
74661;SHT31;63191;39.566;2.654;2022-10-20T06:16:12;20.78;73.17
74661;SHT31;63191;39.566;2.654;2022-10-20T06:18:42;20.83;73.41
74661;SHT31;63191;39.566;2.654;2022-10-20T06:21:15;20.86;73.37
74661;SHT31;63191;39.566;2.654;2022-10-20T06:23:45;20.89;73.15
74661;SHT31;63191;39.566;2.654;2022-10-20T06:26:11;20.94;73.21
74661;SHT31;63191;39.566;2.654;2022-10-20T06:28:42;20.97;73.41
74661;SHT31;63191;39.566;2.654;2022-10-20T06:31:16;21.03;73.58
74661;SHT31;63191;39.566;2.654;2022-10-20T06:33:50;21.11;73.81
74661;SHT31;63191;39.566;2.654;2022-10-20T06:36:16;21.22;74.00
74661;SHT31;63191;39.566;2.654;2022-10-20T06:38:44;21.35;74.16
74661;SHT31;63191;39.566;2.654;2022-10-20T06:41:14;21.52;74.28
74661;SHT31;63191;39.566;2.654;2022-10-20T06:43:42;21.69;74.21
74661;SHT31;63191;39.566;2.654;2022-10-20T06:46:13;21.84;74.12
74661;SHT31;63191;39.566;2.654;2022-10-20T06:48:42;21.99;74.10
74661;SHT31;63191;39.566;2.654;2022-10-20T06:51:09;22.13;74.12
74661;SHT31;63191;39.566;2.654;2022-10-20T06:53:38;22.32;74.20
74661;SHT31;63191;39.566;2.654;2022-10-20T06:56:10;22.52;74.09
74661;SHT31;63191;39.566;2.654;2022-10-20T06:58:39;22.75;73.86
74661;SHT31;63191;39.566;2.654;2022-10-20T07:01:08;23.09;73.39
74661;SHT31;63191;39.566;2.654;2022-10-20T07:03:41;23.50;72.73
74661;SHT31;63191;39.566;2.654;2022-10-20T07:06:09;23.87;72.10
74661;SHT31;63191;39.566;2.654;2022-10-20T07:08:39;24.17;71.52
74661;SHT31;63191;39.566;2.654;2022-10-20T07:11:15;24.49;70.86
74661;SHT31;63191;39.566;2.654;2022-10-20T07:13:44;25.05;70.01
74661;SHT31;63191;39.566;2.654;2022-10-20T07:16:11;25.67;68.80
74661;SHT31;63191;39.566;2.654;2022-10-20T07:18:38;26.30;67.07
74661;SHT31;63191;39.566;2.654;2022-10-20T07:21:05;26.90;65.61
74661;SHT31;63191;39.566;2.654;2022-10-20T07:23:35;27.43;64.21
74661;SHT31;63191;39.566;2.654;2022-10-20T07:28:33;28.11;61.73
74661;SHT31;63191;39.566;2.654;2022-10-20T07:31:03;28.45;60.50
74661;SHT31;63191;39.566;2.654;2022-10-20T07:33:31;28.75;59.46
74661;SHT31;63191;39.566;2.654;2022-10-20T07:35:58;29.13;58.85
74661;SHT31;63191;39.566;2.654;2022-10-20T07:38:23;29.43;58.34
74661;SHT31;63191;39.566;2.654;2022-10-20T07:40:49;29.51;57.69
74661;SHT31;63191;39.566;2.654;2022-10-20T07:43:15;29.52;57.34
74661;SHT31;63191;39.566;2.654;2022-10-20T07:45:41;29.68;57.38
74661;SHT31;63191;39.566;2.654;2022-10-20T07:48:06;29.85;57.34
74661;SHT31;63191;39.566;2.654;2022-10-20T07:50:34;30.05;57.19
74661;SHT31;63191;39.566;2.654;2022-10-20T07:53:02;30.19;56.99
74661;SHT31;63191;39.566;2.654;2022-10-20T07:55:30;30.22;56.84
74661;SHT31;63191;39.566;2.654;2022-10-20T07:57:58;30.19;56.83
74661;SHT31;63191;39.566;2.654;2022-10-20T08:00:24;30.11;57.08
74661;SHT31;63191;39.566;2.654;2022-10-20T08:02:50;29.97;57.30
74661;SHT31;63191;39.566;2.654;2022-10-20T08:05:16;29.80;57.63
74661;SHT31;63191;39.566;2.654;2022-10-20T08:07:41;29.53;58.12
74661;SHT31;63191;39.566;2.654;2022-10-20T08:10:07;29.24;58.80
74661;SHT31;63191;39.566;2.654;2022-10-20T08:12:34;28.97;59.50
74661;SHT31;63191;39.566;2.654;2022-10-20T08:15:00;28.72;60.19
74661;SHT31;63191;39.566;2.654;2022-10-20T08:17:25;28.48;60.84
74661;SHT31;63191;39.566;2.654;2022-10-20T08:19:51;28.24;61.39
74661;SHT31;63191;39.566;2.654;2022-10-20T08:22:17;27.97;62.00
74661;SHT31;63191;39.566;2.654;2022-10-20T08:24:44;27.75;62.63
74661;SHT31;63191;39.566;2.654;2022-10-20T08:27:10;27.57;63.26
74661;SHT31;63191;39.566;2.654;2022-10-20T08:29:37;27.45;63.78
74661;SHT31;63191;39.566;2.654;2022-10-20T08:32:03;27.37;64.32
74661;SHT31;63191;39.566;2.654;2022-10-20T08:34:30;27.38;64.72
74661;SHT31;63191;39.566;2.654;2022-10-20T08:36:55;27.45;64.79
74661;SHT31;63191;39.566;2.654;2022-10-20T08:39:21;27.54;64.64
74661;SHT31;63191;39.566;2.654;2022-10-20T08:41:48;27.69;64.28
74661;SHT31;63191;39.566;2.654;2022-10-20T08:44:20;27.99;63.71
74661;SHT31;63191;39.566;2.654;2022-10-20T08:46:56;28.25;62.92
74661;SHT31;63191;39.566;2.654;2022-10-20T08:49:26;28.45;62.72
74661;SHT31;63191;39.566;2.654;2022-10-20T08:51:56;28.69;62.40
74661;SHT31;63191;39.566;2.654;2022-10-20T08:54:23;28.85;61.58
74661;SHT31;63191;39.566;2.654;2022-10-20T08:56:49;29.00;61.47
74661;SHT31;63191;39.566;2.654;2022-10-20T08:59:25;29.26;61.36
74661;SHT31;63191;39.566;2.654;2022-10-20T09:01:58;29.65;60.93
74661;SHT31;63191;39.566;2.654;2022-10-20T09:04:26;30.08;60.20
74661;SHT31;63191;39.566;2.654;2022-10-20T09:07:00;30.48;59.15
74661;SHT31;63191;39.566;2.654;2022-10-20T09:09:33;30.84;57.65
74661;SHT31;63191;39.566;2.654;2022-10-20T09:12:02;31.13;56.75
74661;SHT31;63191;39.566;2.654;2022-10-20T09:14:32;31.56;56.38
74661;SHT31;63191;39.566;2.654;2022-10-20T09:17:01;32.15;55.69
74661;SHT31;63191;39.566;2.654;2022-10-20T09:19:27;32.88;54.23
74661;SHT31;63191;39.566;2.654;2022-10-20T09:21:58;33.46;51.88
74661;SHT31;63191;39.566;2.654;2022-10-20T09:24:29;34.00;50.26
74661;SHT31;63191;39.566;2.654;2022-10-20T09:26:56;34.64;49.49
74661;SHT31;63191;39.566;2.654;2022-10-20T09:29:45;35.44;47.39
74661;SHT31;63191;39.566;2.654;2022-10-20T09:32:18;36.19;45.98
74661;SHT31;63191;39.566;2.654;2022-10-20T09:37:46;37.29;44.50
74661;SHT31;63191;39.566;2.654;2022-10-20T09:40:29;37.76;42.13
74661;SHT31;63191;39.566;2.654;2022-10-20T09:42:57;38.20;42.15
74661;SHT31;63191;39.566;2.654;2022-10-20T09:45:29;39.14;40.70
74661;SHT31;63191;39.566;2.654;2022-10-20T09:48:17;40.04;37.64
74661;SHT31;63191;39.566;2.654;2022-10-20T09:50:53;40.71;37.09
74661;SHT31;63191;39.566;2.654;2022-10-20T09:53:25;41.15;36.13
74661;SHT31;63191;39.566;2.654;2022-10-20T09:55:57;41.30;35.11
74661;SHT31;63191;39.566;2.654;2022-10-20T09:58:27;41.43;34.80
74661;SHT31;63191;39.566;2.654;2022-10-20T10:00:58;41.79;33.53
74661;SHT31;63191;39.566;2.654;2022-10-20T10:03:26;42.20;32.83
74661;SHT31;63191;39.566;2.654;2022-10-20T10:05:56;42.34;32.36
74661;SHT31;63191;39.566;2.654;2022-10-20T10:08:28;41.96;31.84
74661;SHT31;63191;39.566;2.654;2022-10-20T10:11:13;41.47;31.93
74661;SHT31;63191;39.566;2.654;2022-10-20T10:13:43;41.51;32.57
74661;SHT31;63191;39.566;2.654;2022-10-20T10:16:12;41.67;32.62
74661;SHT31;63191;39.566;2.654;2022-10-20T10:18:42;41.60;32.29
74661;SHT31;63191;39.566;2.654;2022-10-20T10:21:13;41.12;32.22
74661;SHT31;63191;39.566;2.654;2022-10-20T10:23:54;40.68;33.19
74661;SHT31;63191;39.566;2.654;2022-10-20T10:26:41;40.31;33.72
74661;SHT31;63191;39.566;2.654;2022-10-20T10:29:18;39.94;34.38
74661;SHT31;63191;39.566;2.654;2022-10-20T10:32:46;39.67;34.68
74661;SHT31;63191;39.566;2.654;2022-10-20T10:37:53;38.81;35.50
74661;SHT31;63191;39.566;2.654;2022-10-20T10:40:21;38.40;35.55
74661;SHT31;63191;39.566;2.654;2022-10-20T10:43:13;37.81;36.11
74661;SHT31;63191;39.566;2.654;2022-10-20T11:00:00;38.53;37.16
74661;SHT31;63191;39.566;2.654;2022-10-20T11:25:00;37.07;35.97
74661;SHT31;63191;39.566;2.654;2022-10-20T11:27:56;36.84;36.68
74661;SHT31;63191;39.566;2.654;2022-10-20T11:30:23;37.01;36.07
74661;SHT31;63191;39.566;2.654;2022-10-20T11:38:40;39.85;34.05
74661;SHT31;63191;39.566;2.654;2022-10-20T11:47:10;44.52;29.73
74661;SHT31;63191;39.566;2.654;2022-10-20T11:49:38;45.60;27.35
74661;SHT31;63191;39.566;2.654;2022-10-20T11:52:18;46.16;26.10
74661;SHT31;63191;39.566;2.654;2022-10-20T11:58:23;46.60;25.03
74661;SHT31;63191;39.566;2.654;2022-10-20T12:01:42;46.37;24.46
74661;SHT31;63191;39.566;2.654;2022-10-20T12:16:08;41.66;26.93
74661;SHT31;63191;39.566;2.654;2022-10-20T12:18:34;41.85;27.35
74661;SHT31;63191;39.566;2.654;2022-10-20T12:21:02;41.97;27.25
74661;SHT31;63191;39.566;2.654;2022-10-20T12:29:00;41.67;28.66
74661;SHT31;63191;39.566;2.654;2022-10-20T12:34:50;41.88;28.80
74661;SHT31;63191;39.566;2.654;2022-10-20T12:37:24;41.99;28.76
74661;SHT31;63191;39.566;2.654;2022-10-20T12:40:47;41.80;29.18
74661;SHT31;63191;39.566;2.654;2022-10-20T12:43:26;41.35;28.55
74661;SHT31;63191;39.566;2.654;2022-10-20T12:46:07;40.67;29.39
74661;SHT31;63191;39.566;2.654;2022-10-20T12:48:43;39.95;30.58
74661;SHT31;63191;39.566;2.654;2022-10-20T12:51:19;39.29;31.59
74661;SHT31;63191;39.566;2.654;2022-10-20T12:53:52;38.63;31.68
74661;SHT31;63191;39.566;2.654;2022-10-20T12:56:31;37.92;32.64
74661;SHT31;63191;39.566;2.654;2022-10-20T13:02:28;36.69;34.38
74661;SHT31;63191;39.566;2.654;2022-10-20T13:04:54;36.18;35.18
74661;SHT31;63191;39.566;2.654;2022-10-20T13:17:57;35.00;38.16
74661;SHT31;63191;39.566;2.654;2022-10-20T13:21:30;34.83;38.02
74661;SHT31;63191;39.566;2.654;2022-10-20T13:23:47;34.71;38.53
74661;SHT31;63191;39.566;2.654;2022-10-20T13:26:21;34.55;39.64
74661;SHT31;63191;39.566;2.654;2022-10-20T13:28:54;34.40;40.70
74661;SHT31;63191;39.566;2.654;2022-10-20T13:37:36;33.89;42.23
74661;SHT31;63191;39.566;2.654;2022-10-20T13:40:41;33.72;41.78
74661;SHT31;63191;39.566;2.654;2022-10-20T13:43:23;33.61;42.37
74661;SHT31;63191;39.566;2.654;2022-10-20T13:49:08;33.44;42.03
74661;SHT31;63191;39.566;2.654;2022-10-20T13:52:04;33.36;42.58
74661;SHT31;63191;39.566;2.654;2022-10-20T13:54:39;33.20;42.84
74661;SHT31;63191;39.566;2.654;2022-10-20T13:59:56;33.01;42.45
74661;SHT31;63191;39.566;2.654;2022-10-20T14:02:30;32.95;42.98
74661;SHT31;63191;39.566;2.654;2022-10-20T14:07:39;32.85;44.00
74661;SHT31;63191;39.566;2.654;2022-10-20T14:10:19;32.67;43.57
74661;SHT31;63191;39.566;2.654;2022-10-20T14:13:18;32.41;45.09
74661;SHT31;63191;39.566;2.654;2022-10-20T14:15:58;32.24;45.40
74661;SHT31;63191;39.566;2.654;2022-10-20T14:18:26;32.15;45.94
74661;SHT31;63191;39.566;2.654;2022-10-20T14:23:38;31.97;47.71
74661;SHT31;63191;39.566;2.654;2022-10-20T14:26:20;31.82;47.19
74661;SHT31;63191;39.566;2.654;2022-10-20T14:28:50;31.71;47.54
74661;SHT31;63191;39.566;2.654;2022-10-20T14:31:19;31.59;48.43
74661;SHT31;63191;39.566;2.654;2022-10-20T14:33:47;31.45;48.08
74661;SHT31;63191;39.566;2.654;2022-10-20T14:36:23;31.37;49.52
74661;SHT31;63191;39.566;2.654;2022-10-20T14:38:53;31.28;49.95
74661;SHT31;63191;39.566;2.654;2022-10-20T14:41:23;31.18;49.31
74661;SHT31;63191;39.566;2.654;2022-10-20T14:44:00;31.14;49.08
74661;SHT31;63191;39.566;2.654;2022-10-20T14:46:32;31.14;48.75
74661;SHT31;63191;39.566;2.654;2022-10-20T14:49:01;31.10;48.78
74661;SHT31;63191;39.566;2.654;2022-10-20T14:56:44;30.78;51.65
74661;SHT31;63191;39.566;2.654;2022-10-20T14:59:15;30.54;52.59
74661;SHT31;63191;39.566;2.654;2022-10-20T15:04:43;29.99;54.14
74661;SHT31;63191;39.566;2.654;2022-10-20T15:07:13;29.87;55.01
74661;SHT31;63191;39.566;2.654;2022-10-20T15:09:51;29.80;55.51
74661;SHT31;63191;39.566;2.654;2022-10-20T15:12:42;29.76;55.70
74661;SHT31;63191;39.566;2.654;2022-10-20T15:17:42;29.74;56.71
74661;SHT31;63191;39.566;2.654;2022-10-20T15:25:31;29.55;57.75
74661;SHT31;63191;39.566;2.654;2022-10-20T15:28:18;29.43;58.17
74661;SHT31;63191;39.566;2.654;2022-10-20T15:30:51;29.25;58.35
74661;SHT31;63191;39.566;2.654;2022-10-20T15:33:17;29.10;58.55
74661;SHT31;63191;39.566;2.654;2022-10-20T15:35:43;28.97;58.20
74661;SHT31;63191;39.566;2.654;2022-10-20T15:38:11;28.88;58.48
74661;SHT31;63191;39.566;2.654;2022-10-20T15:40:38;28.79;59.12
74661;SHT31;63191;39.566;2.654;2022-10-20T15:43:04;28.70;59.83
74661;SHT31;63191;39.566;2.654;2022-10-20T15:45:32;28.60;60.39
74661;SHT31;63191;39.566;2.654;2022-10-20T15:48:02;28.48;60.88
74661;SHT31;63191;39.566;2.654;2022-10-20T15:50:28;28.37;61.14
74661;SHT31;63191;39.566;2.654;2022-10-20T15:52:55;28.26;61.38
74661;SHT31;63191;39.566;2.654;2022-10-20T15:55:32;28.17;61.80
74661;SHT31;63191;39.566;2.654;2022-10-20T15:58:01;28.11;61.33
74661;SHT31;63191;39.566;2.654;2022-10-20T16:00:27;28.06;60.57
74661;SHT31;63191;39.566;2.654;2022-10-20T16:02:54;28.02;59.98
74661;SHT31;63191;39.566;2.654;2022-10-20T16:05:21;27.96;59.78
74661;SHT31;63191;39.566;2.654;2022-10-20T16:07:48;27.92;59.92
74661;SHT31;63191;39.566;2.654;2022-10-20T16:10:17;27.87;60.02
74661;SHT31;63191;39.566;2.654;2022-10-20T16:12:45;27.81;60.30
74661;SHT31;63191;39.566;2.654;2022-10-20T16:15:12;27.74;60.28
74661;SHT31;63191;39.566;2.654;2022-10-20T16:17:38;27.67;60.41
74661;SHT31;63191;39.566;2.654;2022-10-20T16:20:04;27.61;60.60
74661;SHT31;63191;39.566;2.654;2022-10-20T16:22:32;27.52;60.96
74661;SHT31;63191;39.566;2.654;2022-10-20T16:24:58;27.45;61.66
74661;SHT31;63191;39.566;2.654;2022-10-20T16:27:28;27.38;61.87
74661;SHT31;63191;39.566;2.654;2022-10-20T16:29:55;27.32;61.40
74661;SHT31;63191;39.566;2.654;2022-10-20T16:32:22;27.26;61.08
74661;SHT31;63191;39.566;2.654;2022-10-20T16:34:47;27.19;61.51
74661;SHT31;63191;39.566;2.654;2022-10-20T16:37:13;27.12;61.47
74661;SHT31;63191;39.566;2.654;2022-10-20T16:39:39;27.04;61.38
74661;SHT31;63191;39.566;2.654;2022-10-20T16:42:04;26.96;61.01
74661;SHT31;63191;39.566;2.654;2022-10-20T16:44:30;26.88;60.98
74661;SHT31;63191;39.566;2.654;2022-10-20T16:46:56;26.81;61.24
74661;SHT31;63191;39.566;2.654;2022-10-20T16:49:22;26.73;61.60
74661;SHT31;63191;39.566;2.654;2022-10-20T16:51:48;26.65;62.05
74661;SHT31;63191;39.566;2.654;2022-10-20T16:54:15;26.56;62.56
74661;SHT31;63191;39.566;2.654;2022-10-20T16:56:41;26.48;63.30
74661;SHT31;63191;39.566;2.654;2022-10-20T16:59:07;26.38;63.64
74661;SHT31;63191;39.566;2.654;2022-10-20T17:01:35;26.31;63.82
74661;SHT31;63191;39.566;2.654;2022-10-20T17:04:02;26.23;64.02
74661;SHT31;63191;39.566;2.654;2022-10-20T17:06:28;26.17;64.34
74661;SHT31;63191;39.566;2.654;2022-10-20T17:08:54;26.10;64.66
74661;SHT31;63191;39.566;2.654;2022-10-20T17:11:24;26.04;65.04
74661;SHT31;63191;39.566;2.654;2022-10-20T17:13:53;25.96;65.43
74661;SHT31;63191;39.566;2.654;2022-10-20T17:16:23;25.89;65.71
74661;SHT31;63191;39.566;2.654;2022-10-20T17:18:53;25.83;65.97
74661;SHT31;63191;39.566;2.654;2022-10-20T17:21:20;25.77;66.07
74661;SHT31;63191;39.566;2.654;2022-10-20T17:23:46;25.72;66.26
74661;SHT31;63191;39.566;2.654;2022-10-20T17:26:13;25.68;66.39
74661;SHT31;63191;39.566;2.654;2022-10-20T17:28:42;25.64;66.64
74661;SHT31;63191;39.566;2.654;2022-10-20T17:31:09;25.61;66.88
74661;SHT31;63191;39.566;2.654;2022-10-20T17:33:39;25.58;67.09
74661;SHT31;63191;39.566;2.654;2022-10-20T17:36:05;25.53;67.39
74661;SHT31;63191;39.566;2.654;2022-10-20T17:38:32;25.49;67.53
74661;SHT31;63191;39.566;2.654;2022-10-20T17:41:05;25.45;67.69
74661;SHT31;63191;39.566;2.654;2022-10-20T17:43:34;25.40;67.90
74661;SHT31;63191;39.566;2.654;2022-10-20T17:46:01;25.38;68.52
74661;SHT31;63191;39.566;2.654;2022-10-20T17:48:33;25.34;68.89
74661;SHT31;63191;39.566;2.654;2022-10-20T17:51:07;25.31;69.12
74661;SHT31;63191;39.566;2.654;2022-10-20T17:53:41;25.27;69.52
74661;SHT31;63191;39.566;2.654;2022-10-20T17:56:28;25.23;69.81
74661;SHT31;63191;39.566;2.654;2022-10-20T17:58:58;25.20;69.68
74661;SHT31;63191;39.566;2.654;2022-10-20T18:01:30;25.18;70.11
74661;SHT31;63191;39.566;2.654;2022-10-20T18:04:01;25.15;70.31
74661;SHT31;63191;39.566;2.654;2022-10-20T18:06:34;25.12;70.45
74661;SHT31;63191;39.566;2.654;2022-10-20T18:09:08;25.09;70.56
74661;SHT31;63191;39.566;2.654;2022-10-20T18:11:39;25.05;70.64
74661;SHT31;63191;39.566;2.654;2022-10-20T18:14:08;25.02;70.72
74661;SHT31;63191;39.566;2.654;2022-10-20T18:16:35;24.99;70.81
74661;SHT31;63191;39.566;2.654;2022-10-20T18:19:02;24.96;71.04
74661;SHT31;63191;39.566;2.654;2022-10-20T18:21:30;24.92;71.24
74661;SHT31;63191;39.566;2.654;2022-10-20T18:23:58;24.88;71.44
74661;SHT31;63191;39.566;2.654;2022-10-20T18:26:30;24.86;71.70
74661;SHT31;63191;39.566;2.654;2022-10-20T18:28:58;24.82;71.95
74661;SHT31;63191;39.566;2.654;2022-10-20T18:31:26;24.80;72.00